Main page
METAR-TAF:

Airports :

Çorlu, Turkey

Tekirdağ Çorlu Airport

latitude: 41-08N, longitude: 027-55E, elevation: 173 m

Current weather observation

The report was made 45 minutes ago, at 13:20 UTC
Wind 10 kt from the South/Southwest
Temperature 31°C
Humidity 38%
Pressure 1011 hPa
Visibility 10 km or more
Few clouds at a height of 3000 ft

METAR: LTBU 311320Z 20010KT 9999 FEW030 31/15 Q1011 RMK RWY23 22009KT 160V260

Time: 17:05 (14:05 UTC)

Forecast

The report was made 3 hours and 25 minutes ago, at 10:40 UTC
Forecast valid from 31 at 12 UTC to 01 at 12 UTC
Wind 9 kt from the West/Southwest
Visibility 10 km or more
no clouds below 1500 m and no cumulonimbus

TAF: LTBU 311040Z 3112/0112 24009KT CAVOK

METAR-TAF

Weather observations and forecasts of more than 4000 airports (METAR and TAF reports).

The available stations are represented by yellow and red dots on the map.

Hover mouse over dot to see the name of the station.

Then click to see weather observations and forecasts.

To change the map : click on the green buttons with a black cross to zoom in, on the green button with a dash to zoom out, or on the green arrows for adjacent maps.


METAR-TAF: